Time;durP1;ratioP1;P1;durP2;ratioP2;P2;SDS_P1;SDS_P2;PMS_P1;PMS_P2;Temp;Humidity;BMP_temperature;BMP_pressure;BME280_temperature;BME280_humidity;BME280_pressure;Samples;Min_cycle;Max_cycle;Signal;HPM_P1;HPM_P2
2023/09/14 00:01:08;;;;;;;8.30;3.20;;;11.60;99.90;;;;;;5036353;28;20480;-71
2023/09/14 00:03:34;;;;;;;7.22;3.00;;;;;;;;;;5032892;28;20417;-71
2023/09/14 00:06:00;;;;;;;7.18;2.63;;;11.90;99.90;;;;;;5050155;28;20470;-71
2023/09/14 00:08:30;;;;;;;10.48;2.92;;;11.70;99.90;;;;;;5047756;28;20513;-71
2023/09/14 00:11:02;;;;;;;7.53;2.78;;;11.80;99.90;;;;;;5030500;28;20503;-71
2023/09/14 00:13:28;;;;;;;5.18;2.38;;;;;;;;;;5054704;28;20527;-72
2023/09/14 00:15:54;;;;;;;6.82;2.85;;;11.80;99.90;;;;;;5036879;28;20427;-71
2023/09/14 00:18:20;;;;;;;12.85;3.00;;;11.90;99.90;;;;;;5074167;28;20508;-72
2023/09/14 00:20:46;;;;;;;5.55;2.78;;;;;;;;;;5036466;28;20446;-71
2023/09/14 00:23:12;;;;;;;7.03;2.97;;;12.00;99.90;;;;;;5037650;28;20416;-71
2023/09/14 00:25:37;;;;;;;4.57;2.60;;;11.90;99.90;;;;;;5066624;28;20504;-72
2023/09/14 00:28:03;;;;;;;5.63;2.70;;;11.90;99.90;;;;;;5043753;28;20426;-71
2023/09/14 00:30:29;;;;;;;6.53;3.00;;;;;;;;;;5035780;28;20896;-72
2023/09/14 00:32:55;;;;;;;5.90;2.95;;;11.90;99.90;;;;;;5024165;28;20432;-71
2023/09/14 00:35:21;;;;;;;6.83;3.00;;;12.00;99.90;;;;;;5031149;28;20429;-71
2023/09/14 00:37:47;;;;;;;6.83;3.07;;;12.00;99.90;;;;;;5026570;28;20422;-74
2023/09/14 00:40:14;;;;;;;6.85;2.83;;;12.00;99.90;;;;;;5059708;28;20424;-74
2023/09/14 00:42:43;;;;;;;5.00;2.63;;;11.90;99.90;;;;;;5081759;28;20933;-74
2023/09/14 00:45:12;;;;;;;9.07;3.40;;;11.90;99.90;;;;;;5067790;28;20405;-74
2023/09/14 00:47:40;;;;;;;8.13;2.85;;;11.90;99.90;;;;;;5026922;28;20834;-74
2023/09/14 00:50:07;;;;;;;7.10;3.40;;;11.60;99.90;;;;;;5067172;28;20453;-74
2023/09/14 00:52:34;;;;;;;9.15;3.10;;;11.60;99.90;;;;;;5012870;28;20824;-74
2023/09/14 00:55:00;;;;;;;5.63;2.67;;;11.70;99.90;;;;;;5082847;28;20420;-74
2023/09/14 00:57:26;;;;;;;8.10;3.35;;;;;;;;;;5063387;28;20991;-74
2023/09/14 00:59:53;;;;;;;9.40;3.07;;;11.80;99.90;;;;;;5034336;28;20421;-74
2023/09/14 01:02:20;;;;;;;6.00;3.00;;;;;;;;;;5033148;28;20432;-74
2023/09/14 01:04:46;;;;;;;9.27;2.90;;;11.80;99.90;;;;;;5031727;28;20420;-74
2023/09/14 01:07:15;;;;;;;7.43;2.97;;;;;;;;;;5014641;28;20407;-74
2023/09/14 01:09:41;;;;;;;6.30;3.20;;;;;;;;;;5050976;28;20456;-74
2023/09/14 01:12:08;;;;;;;6.72;2.88;;;11.90;99.90;;;;;;5037107;28;20881;-74
2023/09/14 01:14:43;;;;;;;8.50;2.80;;;11.90;99.90;;;;;;5033870;28;20421;-74
2023/09/14 01:17:12;;;;;;;7.35;3.20;;;;;;;;;;5033761;28;20436;-74
2023/09/14 01:19:41;;;;;;;5.27;2.73;;;12.00;99.90;;;;;;5049902;28;20468;-74
2023/09/14 01:22:21;;;;;;;6.47;2.60;;;11.90;99.90;;;;;;5033371;28;20474;-74
2023/09/14 01:24:47;;;;;;;10.43;2.95;;;;;;;;;;5050063;28;20442;-74
2023/09/14 01:27:14;;;;;;;5.82;2.90;;;11.80;99.90;;;;;;5033755;28;20494;-74
2023/09/14 01:29:40;;;;;;;8.73;2.83;;;;;;;;;;5042072;28;20417;-74
2023/09/14 01:32:06;;;;;;;7.22;2.55;;;11.90;99.90;;;;;;5020175;28;20419;-74
2023/09/14 01:34:32;;;;;;;6.70;2.60;;;11.70;99.90;;;;;;5033210;28;20445;-74
2023/09/14 01:36:59;;;;;;;5.50;2.53;;;;;;;;;;5024849;28;20433;-74
2023/09/14 01:39:25;;;;;;;6.43;2.67;;;11.70;99.90;;;;;;5049310;28;20842;-74
2023/09/14 01:41:55;;;;;;;6.38;2.80;;;11.70;99.90;;;;;;5066742;28;20417;-74
2023/09/14 01:44:27;;;;;;;7.40;2.70;;;;;;;;;;5070904;28;20516;-74
2023/09/14 01:46:54;;;;;;;9.67;2.50;;;11.40;99.90;;;;;;5033002;28;20449;-74
2023/09/14 01:49:20;;;;;;;7.60;2.88;;;11.60;99.90;;;;;;5033527;28;20448;-74
2023/09/14 01:51:46;;;;;;;5.93;2.53;;;11.30;99.90;;;;;;5019296;28;20500;-75
2023/09/14 01:54:12;;;;;;;7.68;3.10;;;;;;;;;;5032392;28;20411;-75
2023/09/14 01:56:38;;;;;;;7.95;3.00;;;11.40;99.90;;;;;;5017004;28;20512;-74
2023/09/14 01:59:03;;;;;;;7.80;2.47;;;11.50;99.90;;;;;;5067059;28;20511;-74
2023/09/14 02:01:30;;;;;;;7.43;2.87;;;;;;;;;;5050512;28;20854;-75
2023/09/14 02:03:55;;;;;;;6.40;2.63;;;11.40;99.90;;;;;;5032670;28;20413;-74
2023/09/14 02:06:21;;;;;;;5.17;2.70;;;11.20;99.90;;;;;;5044841;28;20446;-74
2023/09/14 02:08:47;;;;;;;6.40;2.73;;;11.20;99.90;;;;;;5046090;28;20427;-74
2023/09/14 02:11:13;;;;;;;5.30;2.70;;;11.20;99.90;;;;;;5022670;28;20430;-74
2023/09/14 02:13:43;;;;;;;9.10;2.70;;;;;;;;;;5015620;28;20488;-74
2023/09/14 02:16:09;;;;;;;7.50;2.75;;;11.30;99.90;;;;;;5033291;28;20410;-74
2023/09/14 02:18:35;;;;;;;6.07;2.60;;;11.10;99.90;;;;;;5066897;28;20409;-74
2023/09/14 02:21:01;;;;;;;8.73;2.83;;;11.00;99.90;;;;;;5026182;28;20436;-74
2023/09/14 02:23:26;;;;;;;9.18;2.80;;;11.00;99.90;;;;;;5022457;28;20413;-74
2023/09/14 02:25:52;;;;;;;8.65;2.72;;;10.80;99.90;;;;;;5032851;28;20777;-74
2023/09/14 02:28:21;;;;;;;6.40;2.78;;;11.00;99.90;;;;;;5050284;28;20793;-74
2023/09/14 02:30:48;;;;;;;6.40;2.78;;;;;;;;;;5047306;28;20502;-74
2023/09/14 02:33:14;;;;;;;7.28;2.72;;;;;;;;;;5056711;28;20419;-74
2023/09/14 02:35:40;;;;;;;8.52;2.70;;;10.80;99.90;;;;;;5057047;28;20925;-74
2023/09/14 02:38:06;;;;;;;7.40;2.60;;;11.00;99.90;;;;;;5034568;28;20419;-74
2023/09/14 02:40:33;;;;;;;5.47;2.50;;;10.90;99.90;;;;;;5072925;28;20928;-74
2023/09/14 02:42:59;;;;;;;6.68;2.85;;;;;;;;;;5024980;28;20422;-74
2023/09/14 02:45:25;;;;;;;6.38;2.50;;;10.80;99.90;;;;;;5025770;28;20422;-74
2023/09/14 02:47:51;;;;;;;6.87;2.70;;;;;;;;;;5067434;28;20504;-74
2023/09/14 02:50:17;;;;;;;6.50;2.50;;;;;;;;;;5039868;28;20457;-74
2023/09/14 02:52:43;;;;;;;6.45;2.60;;;10.70;99.90;;;;;;5032445;28;20484;-74
2023/09/14 02:55:09;;;;;;;6.60;2.88;;;10.40;99.90;;;;;;5034765;28;20457;-74
2023/09/14 02:57:34;;;;;;;5.80;2.85;;;10.60;99.90;;;;;;5035599;28;20537;-74
2023/09/14 03:00:00;;;;;;;6.00;2.70;;;;;;;;;;5068695;28;20443;-74
2023/09/14 03:02:27;;;;;;;7.47;2.90;;;;;;;;;;5036740;28;20919;-74
2023/09/14 03:04:53;;;;;;;6.80;2.70;;;10.40;99.90;;;;;;5033450;28;20501;-74
2023/09/14 03:07:19;;;;;;;6.90;3.13;;;10.50;99.90;;;;;;5034730;28;20421;-74
2023/09/14 03:09:45;;;;;;;5.80;2.72;;;10.30;99.90;;;;;;5032193;28;20519;-74
2023/09/14 03:12:11;;;;;;;5.57;2.80;;;;;;;;;;5008478;28;20838;-74
2023/09/14 03:14:36;;;;;;;5.57;2.70;;;10.30;99.90;;;;;;5048769;28;20506;-74
2023/09/14 03:17:03;;;;;;;6.13;2.60;;;;;;;;;;5039362;28;20508;-74
2023/09/14 03:19:29;;;;;;;5.85;2.50;;;;;;;;;;5034081;28;20424;-74
2023/09/14 03:21:55;;;;;;;5.53;2.80;;;;;;;;;;5028974;28;20437;-74
2023/09/14 03:24:21;;;;;;;7.13;2.72;;;;;;;;;;5049688;28;20422;-74
2023/09/14 03:26:47;;;;;;;8.00;2.90;;;;;;;;;;5039568;28;20424;-74
2023/09/14 03:29:13;;;;;;;6.95;2.90;;;;;;;;;;5034508;28;20470;-75
2023/09/14 03:31:39;;;;;;;7.32;3.35;;;9.80;99.90;;;;;;5022289;28;20420;-74
2023/09/14 03:34:07;;;;;;;7.40;2.92;;;10.20;99.90;;;;;;5054560;28;20400;-74
2023/09/14 03:36:33;;;;;;;5.40;3.10;;;10.30;99.90;;;;;;5049151;28;20442;-74
2023/09/14 03:38:58;;;;;;;5.85;3.20;;;10.00;99.90;;;;;;5066491;28;20425;-74
2023/09/14 03:41:24;;;;;;;10.30;3.33;;;;;;;;;;5027024;28;20737;-74
2023/09/14 03:43:51;;;;;;;9.10;3.70;;;;;;;;;;5023797;28;20428;-74
2023/09/14 03:46:18;;;;;;;8.00;3.20;;;;;;;;;;5020037;28;20433;-74
2023/09/14 03:48:44;;;;;;;5.70;3.23;;;;;;;;;;5034857;28;20488;-74
2023/09/14 03:51:09;;;;;;;8.13;3.50;;;9.90;99.90;;;;;;5050987;28;20475;-75
2023/09/14 03:53:35;;;;;;;7.00;3.50;;;10.00;99.90;;;;;;5034940;28;20823;-74
2023/09/14 03:56:02;;;;;;;6.60;3.50;;;10.00;99.90;;;;;;5052809;28;20813;-74
2023/09/14 03:58:28;;;;;;;6.50;3.50;;;9.70;99.90;;;;;;5035442;28;20445;-74
2023/09/14 04:00:54;;;;;;;6.60;3.45;;;9.70;99.90;;;;;;5033455;28;20460;-76
2023/09/14 04:03:19;;;;;;;6.88;3.47;;;9.80;99.90;;;;;;5050047;28;20501;-75
2023/09/14 04:05:46;;;;;;;11.48;3.90;;;;;;;;;;5030416;28;20508;-75
2023/09/14 04:08:12;;;;;;;6.78;3.50;;;;;;;;;;5015135;28;20433;-71
2023/09/14 04:10:41;;;;;;;7.07;3.95;;;9.70;99.90;;;;;;5033967;28;20455;-71
2023/09/14 04:13:32;;;;;;;7.85;3.60;;;;;;;;;;5072149;28;20419;-71
2023/09/14 04:15:58;;;;;;;6.55;3.50;;;;;;;;;;5026919;28;20429;-72
2023/09/14 04:18:25;;;;;;;6.47;3.70;;;9.50;99.90;;;;;;5047916;28;20491;-71
2023/09/14 04:20:51;;;;;;;6.65;3.67;;;9.80;99.90;;;;;;5062885;28;20528;-71
2023/09/14 04:23:17;;;;;;;7.00;3.38;;;;;;;;;;5068638;28;20417;-71
2023/09/14 04:25:46;;;;;;;8.10;3.78;;;9.80;99.90;;;;;;5086953;28;20395;-71
2023/09/14 04:28:16;;;;;;;7.28;3.50;;;9.70;99.90;;;;;;5027982;28;20422;-71
2023/09/14 04:30:44;;;;;;;8.70;3.55;;;9.70;99.90;;;;;;5050158;28;20413;-72
2023/09/14 04:33:14;;;;;;;9.07;3.47;;;9.70;99.90;;;;;;5016932;28;20429;-71
2023/09/14 04:35:41;;;;;;;7.65;3.55;;;9.70;99.90;;;;;;5065382;28;20917;-72
2023/09/14 04:38:07;;;;;;;8.37;3.73;;;;;;;;;;5065656;28;20559;-71
2023/09/14 04:40:41;;;;;;;8.20;3.53;;;9.60;99.90;;;;;;5065716;28;20501;-71
2023/09/14 04:43:08;;;;;;;8.05;3.72;;;;;;;;;;5068752;28;20417;-71
2023/09/14 04:45:34;;;;;;;9.63;4.00;;;9.60;99.90;;;;;;5083714;28;20419;-71
2023/09/14 04:48:00;;;;;;;8.97;3.80;;;9.50;99.90;;;;;;5041225;28;20558;-71
2023/09/14 04:50:27;;;;;;;7.43;3.90;;;9.40;99.90;;;;;;5054005;28;20412;-71
2023/09/14 04:52:53;;;;;;;9.65;4.10;;;;;;;;;;5022701;28;20456;-71
2023/09/14 04:55:18;;;;;;;8.32;3.80;;;9.40;99.90;;;;;;5031196;28;20427;-71
2023/09/14 04:57:44;;;;;;;11.45;4.20;;;9.40;99.90;;;;;;5003107;28;20429;-71
2023/09/14 05:00:11;;;;;;;6.82;3.97;;;;;;;;;;5050607;28;20421;-71
2023/09/14 05:02:38;;;;;;;8.70;3.85;;;;;;;;;;5025177;28;20425;-71
2023/09/14 05:05:06;;;;;;;12.35;3.70;;;9.30;99.90;;;;;;5031775;28;20431;-71
2023/09/14 05:07:32;;;;;;;8.85;3.88;;;;;;;;;;5047627;28;20424;-71
2023/09/14 05:09:58;;;;;;;8.85;3.75;;;9.20;99.90;;;;;;5034843;28;22119;-71
2023/09/14 05:12:25;;;;;;;7.27;3.80;;;;;;;;;;5009483;28;20439;-71
2023/09/14 05:14:50;;;;;;;10.15;4.07;;;9.30;99.90;;;;;;5064806;28;20830;-71
2023/09/14 05:17:16;;;;;;;10.43;4.00;;;9.00;99.90;;;;;;5033865;28;20499;-71
2023/09/14 05:19:43;;;;;;;8.63;4.03;;;9.40;99.90;;;;;;5048452;28;20945;-71
2023/09/14 05:22:11;;;;;;;7.53;4.03;;;9.40;99.90;;;;;;5069118;28;20413;-71
2023/09/14 05:24:40;;;;;;;9.57;4.22;;;9.50;99.90;;;;;;5032600;28;20445;-71
2023/09/14 05:27:07;;;;;;;9.77;3.70;;;;;;;;;;5034745;28;20452;-71
2023/09/14 05:29:32;;;;;;;8.75;4.40;;;9.40;99.90;;;;;;5032563;28;20409;-69
2023/09/14 05:31:58;;;;;;;7.50;4.30;;;;;;;;;;5015067;28;20429;-70
2023/09/14 05:34:25;;;;;;;12.80;4.25;;;;;;;;;;5033823;28;20550;-73
2023/09/14 05:36:52;;;;;;;11.27;4.53;;;;;;;;;;5028906;28;20480;-71
2023/09/14 05:39:18;;;;;;;8.98;4.28;;;9.50;99.90;;;;;;5030604;28;20478;-71
2023/09/14 05:41:44;;;;;;;11.35;4.25;;;;;;;;;;5029482;28;20425;-71
2023/09/14 05:44:10;;;;;;;8.38;4.30;;;9.60;99.90;;;;;;5043242;28;20504;-71
2023/09/14 05:46:37;;;;;;;10.07;4.85;;;;;;;;;;5030232;28;21010;-71
2023/09/14 05:49:03;;;;;;;8.73;4.22;;;9.60;99.90;;;;;;5064828;28;20417;-71
2023/09/14 05:51:29;;;;;;;10.15;4.30;;;;;;;;;;5037354;28;20426;-71
2023/09/14 05:53:55;;;;;;;10.18;4.40;;;;;;;;;;5006808;28;20436;-71
2023/09/14 05:56:21;;;;;;;10.13;4.00;;;9.70;99.90;;;;;;5043759;28;20425;-71
2023/09/14 05:58:50;;;;;;;10.25;4.30;;;9.90;99.90;;;;;;5046235;28;20510;-72
2023/09/14 06:01:16;;;;;;;10.80;4.05;;;10.00;99.90;;;;;;5002917;28;22150;-71
2023/09/14 06:03:42;;;;;;;9.17;4.30;;;;;;;;;;5063465;28;20513;-72
2023/09/14 06:06:08;;;;;;;8.90;4.20;;;;;;;;;;5063955;28;20421;-72
2023/09/14 06:08:35;;;;;;;10.13;4.15;;;10.00;99.90;;;;;;5064261;28;20425;-71
2023/09/14 06:11:01;;;;;;;7.55;3.60;;;10.30;99.90;;;;;;5053653;28;20771;-71
2023/09/14 06:13:28;;;;;;;9.80;3.60;;;;;;;;;;5010920;28;20878;-72
2023/09/14 06:15:54;;;;;;;11.93;3.80;;;10.40;99.90;;;;;;5047536;28;20761;-72
2023/09/14 06:18:20;;;;;;;13.45;3.90;;;10.50;99.90;;;;;;5066229;28;20435;-71
2023/09/14 06:20:46;;;;;;;9.43;3.33;;;10.50;99.90;;;;;;5018122;28;21634;-71
2023/09/14 06:23:12;;;;;;;9.55;3.35;;;10.30;99.90;;;;;;5032523;28;20483;-72
2023/09/14 06:25:37;;;;;;;7.57;3.50;;;10.80;99.90;;;;;;5038565;28;20465;-72
2023/09/14 06:28:03;;;;;;;6.18;2.83;;;11.10;99.90;;;;;;5034078;28;20792;-73
2023/09/14 06:30:30;;;;;;;7.80;2.85;;;10.60;99.90;;;;;;5056552;28;20441;-72
2023/09/14 06:32:55;;;;;;;8.18;3.00;;;11.10;99.90;;;;;;5018743;28;20500;-72
2023/09/14 06:35:21;;;;;;;6.87;3.20;;;;;;;;;;5021441;28;20541;-72
2023/09/14 06:37:47;;;;;;;5.72;2.70;;;11.20;99.90;;;;;;5054546;28;20440;-72
2023/09/14 06:40:14;;;;;;;9.65;3.25;;;;;;;;;;5022425;28;20500;-72
2023/09/14 06:42:41;;;;;;;7.75;3.00;;;11.70;99.90;;;;;;5071607;28;20911;-72
2023/09/14 06:45:08;;;;;;;11.48;3.42;;;;;;;;;;5049781;28;20425;-72
2023/09/14 06:47:33;;;;;;;11.80;3.70;;;11.80;99.90;;;;;;5033929;28;20421;-72
2023/09/14 06:49:59;;;;;;;9.38;3.42;;;11.90;99.90;;;;;;5027762;28;20422;-72
2023/09/14 06:52:25;;;;;;;8.30;2.95;;;;;;;;;;5008960;28;20833;-72
2023/09/14 06:54:51;;;;;;;6.82;2.70;;;12.00;99.90;;;;;;5049350;28;20417;-72
2023/09/14 06:57:17;;;;;;;9.18;2.95;;;12.30;99.90;;;;;;5034188;28;20991;-72
2023/09/14 06:59:43;;;;;;;9.68;3.63;;;;;;;;;;5013195;28;20427;-72
2023/09/14 07:02:09;;;;;;;8.07;3.45;;;12.40;99.90;;;;;;5035134;28;20421;-72
2023/09/14 07:04:35;;;;;;;10.32;3.53;;;;;;;;;;5022372;28;20424;-72
2023/09/14 07:07:01;;;;;;;10.30;3.55;;;;;;;;;;5022056;28;20907;-73
2023/09/14 07:09:28;;;;;;;12.15;3.90;;;13.00;99.90;;;;;;5017341;28;20418;-73
2023/09/14 07:11:53;;;;;;;9.57;3.15;;;13.10;99.90;;;;;;5023240;28;20419;-72
2023/09/14 07:14:19;;;;;;;7.00;2.80;;;13.40;99.90;;;;;;5014951;28;20470;-73
2023/09/14 07:16:45;;;;;;;12.05;4.05;;;13.30;99.90;;;;;;5018311;28;20428;-73
2023/09/14 07:19:13;;;;;;;9.63;3.73;;;13.40;99.90;;;;;;5025382;28;20489;-73
2023/09/14 07:21:39;;;;;;;7.57;3.40;;;13.70;99.90;;;;;;5063760;28;20806;-73
2023/09/14 07:24:06;;;;;;;8.23;3.10;;;13.80;99.90;;;;;;5020170;28;20417;-73
2023/09/14 07:26:33;;;;;;;8.05;3.30;;;14.30;99.90;;;;;;5029952;28;20421;-73
2023/09/14 07:28:59;;;;;;;8.15;3.30;;;14.30;99.90;;;;;;5050995;28;20421;-72
2023/09/14 07:31:25;;;;;;;8.60;2.40;;;14.50;99.90;;;;;;5036561;28;20954;-73
2023/09/14 07:33:52;;;;;;;8.53;2.50;;;;;;;;;;5033598;28;20424;-72
2023/09/14 07:36:17;;;;;;;10.18;2.58;;;14.30;99.90;;;;;;5033009;28;20437;-72
2023/09/14 07:38:43;;;;;;;5.30;1.90;;;14.70;99.90;;;;;;5045152;28;20450;-72
2023/09/14 07:41:09;;;;;;;5.70;2.20;;;14.70;99.90;;;;;;5046988;28;20423;-73
2023/09/14 07:43:36;;;;;;;6.80;2.20;;;;;;;;;;5048819;28;20911;-73
2023/09/14 07:46:01;;;;;;;7.75;2.20;;;15.00;99.90;;;;;;5051327;28;20415;-73
2023/09/14 07:48:27;;;;;;;5.80;2.20;;;15.00;99.90;;;;;;5015731;28;20509;-73
2023/09/14 07:50:53;;;;;;;7.85;1.98;;;15.10;99.90;;;;;;5029693;28;20421;-73
2023/09/14 07:53:19;;;;;;;7.30;1.92;;;15.10;99.90;;;;;;5036222;28;20429;-72
2023/09/14 07:55:46;;;;;;;4.45;1.83;;;15.40;99.90;;;;;;5016332;28;20419;-73
2023/09/14 07:58:11;;;;;;;9.25;2.03;;;15.60;99.90;;;;;;5032780;28;20421;-73
2023/09/14 08:00:38;;;;;;;8.38;1.90;;;15.30;99.90;;;;;;5039226;28;20495;-73
2023/09/14 08:03:04;;;;;;;9.10;2.13;;;15.90;99.90;;;;;;5019005;28;20425;-73
2023/09/14 08:05:30;;;;;;;5.63;1.90;;;16.00;99.90;;;;;;5035090;28;20430;-72
2023/09/14 08:07:55;;;;;;;8.27;2.00;;;16.60;99.90;;;;;;5029284;28;20411;-72
2023/09/14 08:10:22;;;;;;;4.15;1.80;;;16.60;99.90;;;;;;5035213;28;20539;-72
2023/09/14 08:12:47;;;;;;;9.27;2.30;;;17.00;99.90;;;;;;5027847;28;20859;-73
2023/09/14 08:15:15;;;;;;;7.10;2.00;;;16.50;99.90;;;;;;4998340;28;20468;-72
2023/09/14 08:17:40;;;;;;;9.15;2.10;;;16.90;99.90;;;;;;5057896;28;20508;-72
2023/09/14 08:20:07;;;;;;;6.57;1.80;;;16.60;99.90;;;;;;5000711;28;20440;-72
2023/09/14 08:22:32;;;;;;;10.20;1.95;;;16.80;99.90;;;;;;5012421;28;20530;-72
2023/09/14 08:25:00;;;;;;;10.00;2.10;;;17.10;99.90;;;;;;5013064;28;20909;-72
2023/09/14 08:27:26;;;;;;;7.20;1.98;;;16.80;99.90;;;;;;5016418;28;20810;-73
2023/09/14 08:29:52;;;;;;;5.93;1.88;;;17.00;99.90;;;;;;5023822;28;20458;-73
2023/09/14 08:32:18;;;;;;;5.37;2.00;;;17.00;99.90;;;;;;5035954;28;20535;-72
2023/09/14 08:34:43;;;;;;;5.55;1.77;;;17.00;99.90;;;;;;5036611;28;22176;-73
2023/09/14 08:37:10;;;;;;;7.77;2.00;;;17.40;99.90;;;;;;5031335;28;20491;-73
2023/09/14 08:39:37;;;;;;;10.30;2.10;;;17.30;99.90;;;;;;5032212;28;20425;-74
2023/09/14 08:42:03;;;;;;;5.13;1.88;;;17.90;99.90;;;;;;5039089;28;20413;-74
2023/09/14 08:44:36;;;;;;;10.55;2.28;;;18.00;99.90;;;;;;5008045;28;20439;-73
2023/09/14 08:47:01;;;;;;;10.23;2.47;;;18.20;99.90;;;;;;5030656;28;20493;-72
2023/09/14 08:49:29;;;;;;;8.10;2.47;;;18.20;99.90;;;;;;5019514;28;20995;-73
2023/09/14 08:51:59;;;;;;;7.28;1.85;;;18.00;99.90;;;;;;5044537;28;20492;-73
2023/09/14 08:54:25;;;;;;;9.57;2.00;;;18.20;99.90;;;;;;5032987;28;20841;-73
2023/09/14 08:56:51;;;;;;;9.63;2.22;;;18.20;99.90;;;;;;5027427;28;20426;-73
2023/09/14 08:59:20;;;;;;;10.30;2.23;;;18.40;99.90;;;;;;5014152;28;20417;-73
2023/09/14 09:01:48;;;;;;;13.25;2.60;;;18.50;99.90;;;;;;5044585;28;20443;-73
2023/09/14 09:04:14;;;;;;;6.43;2.22;;;18.90;99.90;;;;;;5030231;28;20944;-74
2023/09/14 09:06:41;;;;;;;5.82;1.92;;;18.60;99.90;;;;;;5020933;28;20429;-74
2023/09/14 09:09:14;;;;;;;8.57;2.55;;;18.80;99.90;;;;;;5025237;28;20409;-74
2023/09/14 09:11:39;;;;;;;10.23;2.20;;;19.00;99.90;;;;;;5032360;28;20789;-73
2023/09/14 09:14:05;;;;;;;11.00;2.30;;;18.70;99.90;;;;;;5031145;28;20415;-73
2023/09/14 09:16:31;;;;;;;8.15;2.03;;;18.90;99.90;;;;;;5033573;28;20455;-74
2023/09/14 09:19:05;;;;;;;8.20;2.38;;;18.90;99.90;;;;;;5015091;28;20490;-73
2023/09/14 09:21:33;;;;;;;5.35;2.13;;;18.80;99.90;;;;;;5043077;28;20433;-73
2023/09/14 09:24:10;;;;;;;6.50;2.00;;;19.00;99.90;;;;;;5040070;28;20438;-73
2023/09/14 09:26:38;;;;;;;8.45;2.00;;;19.60;99.90;;;;;;5045861;28;20421;-73
2023/09/14 09:29:14;;;;;;;9.50;2.22;;;19.30;99.90;;;;;;5033717;28;20404;-72
2023/09/14 09:31:50;;;;;;;6.20;1.80;;;19.30;99.90;;;;;;5066361;28;20415;-73
2023/09/14 09:34:24;;;;;;;6.85;2.10;;;19.40;99.90;;;;;;5050645;28;20425;-73
2023/09/14 09:36:55;;;;;;;6.70;2.35;;;19.70;99.90;;;;;;5027418;28;20437;-73
2023/09/14 09:39:21;;;;;;;7.55;2.05;;;20.10;99.90;;;;;;5027407;28;20758;-72
2023/09/14 09:41:47;;;;;;;6.85;2.03;;;20.00;99.90;;;;;;5057673;28;20479;-72
2023/09/14 09:44:16;;;;;;;5.38;2.20;;;19.70;99.90;;;;;;5041906;28;20767;-75
2023/09/14 09:46:43;;;;;;;5.85;2.40;;;19.80;99.90;;;;;;5019891;28;20505;-74
2023/09/14 09:49:19;;;;;;;6.20;1.90;;;19.80;99.90;;;;;;5038443;28;20409;-73
2023/09/14 09:51:48;;;;;;;5.93;1.90;;;19.90;99.90;;;;;;5024661;28;20456;-74
2023/09/14 09:54:14;;;;;;;6.43;2.20;;;20.10;99.90;;;;;;5038822;28;20490;-76
2023/09/14 09:56:40;;;;;;;7.22;1.95;;;20.20;99.90;;;;;;5031677;28;20444;-76
2023/09/14 09:59:10;;;;;;;9.45;2.47;;;20.50;99.90;;;;;;5028912;28;20425;-76
2023/09/14 10:01:40;;;;;;;7.68;2.28;;;20.50;99.90;;;;;;5012937;28;20818;-75
2023/09/14 10:04:13;;;;;;;6.35;2.20;;;20.00;99.90;;;;;;5011603;28;22193;-75
2023/09/14 10:06:43;;;;;;;9.07;2.15;;;19.60;99.90;;;;;;5015434;28;20433;-76
2023/09/14 10:09:11;;;;;;;6.60;2.20;;;19.80;99.90;;;;;;5062312;28;20413;-75
2023/09/14 10:11:38;;;;;;;7.72;2.17;;;19.90;99.90;;;;;;5031260;28;20462;-76
2023/09/14 10:14:05;;;;;;;6.87;1.90;;;19.60;99.90;;;;;;5028680;28;20497;-75
2023/09/14 10:16:40;;;;;;;8.70;2.20;;;20.00;99.90;;;;;;5037079;28;20417;-76
2023/09/14 10:19:06;;;;;;;8.63;2.25;;;19.80;99.90;;;;;;5043806;28;20954;-76
2023/09/14 10:21:33;;;;;;;7.57;1.90;;;20.30;99.90;;;;;;5051106;28;20573;-75
2023/09/14 10:24:00;;;;;;;4.93;1.98;;;20.00;99.90;;;;;;5035996;28;20518;-77
2023/09/14 10:26:29;;;;;;;6.10;2.10;;;20.60;99.90;;;;;;5053995;28;20423;-74
2023/09/14 10:28:56;;;;;;;6.82;1.95;;;20.40;99.90;;;;;;5047355;28;20423;-76
2023/09/14 10:31:24;;;;;;;6.28;1.90;;;20.60;99.90;;;;;;5033744;28;20483;-76
2023/09/14 10:33:51;;;;;;;7.47;2.22;;;20.70;99.90;;;;;;5038817;28;20423;-76
2023/09/14 10:36:18;;;;;;;6.22;1.90;;;20.40;99.90;;;;;;5038910;28;20426;-76
2023/09/14 10:38:47;;;;;;;6.80;2.17;;;20.80;99.90;;;;;;5045733;28;20567;-76
2023/09/14 10:41:13;;;;;;;7.05;2.00;;;20.90;99.90;;;;;;5051674;28;20465;-76
2023/09/14 10:43:41;;;;;;;6.28;2.40;;;21.30;99.90;;;;;;5038194;28;20496;-76
2023/09/14 10:46:14;;;;;;;6.13;2.10;;;21.40;99.90;;;;;;5052242;28;20553;-74
2023/09/14 10:48:40;;;;;;;5.78;2.08;;;21.60;99.90;;;;;;5040219;28;20503;-74
2023/09/14 10:51:09;;;;;;;8.07;2.33;;;21.30;99.90;;;;;;5053028;28;20455;-75
2023/09/14 10:53:35;;;;;;;5.40;2.15;;;21.50;99.90;;;;;;5038218;28;20791;-77
2023/09/14 10:56:02;;;;;;;6.50;2.25;;;21.90;99.90;;;;;;5040024;28;20466;-77
2023/09/14 10:58:40;;;;;;;5.75;2.33;;;21.00;99.90;;;;;;5052795;28;20417;-74
2023/09/14 11:01:10;;;;;;;6.63;2.40;;;21.20;99.90;;;;;;5067986;28;20479;-77
2023/09/14 11:04:05;;;;;;;6.60;2.10;;;21.00;99.90;;;;;;5048802;28;20429;-77
2023/09/14 11:06:55;;;;;;;7.75;2.40;;;21.30;99.90;;;;;;5032446;28;20453;-75
2023/09/14 11:09:22;;;;;;;6.97;2.17;;;21.60;99.90;;;;;;5062920;28;20425;-77
2023/09/14 11:11:52;;;;;;;7.43;2.70;;;21.10;99.90;;;;;;5034346;28;20417;-77
2023/09/14 11:14:20;;;;;;;5.45;2.13;;;21.70;99.90;;;;;;5075290;28;20507;-74
2023/09/14 11:16:46;;;;;;;6.68;2.08;;;20.90;99.90;;;;;;5067217;28;20422;-77
2023/09/14 11:19:32;;;;;;;7.28;2.20;;;21.00;99.90;;;;;;5036754;28;20879;-76
2023/09/14 11:22:11;;;;;;;5.97;2.33;;;21.30;99.90;;;;;;5069760;28;20921;-76
2023/09/14 11:24:37;;;;;;;6.82;2.10;;;21.20;99.90;;;;;;5039802;28;20467;-77
2023/09/14 11:27:03;;;;;;;5.53;2.40;;;21.10;99.90;;;;;;5071320;28;20405;-77
2023/09/14 11:29:32;;;;;;;7.47;2.25;;;21.00;99.90;;;;;;5031381;28;20479;-76
2023/09/14 11:32:04;;;;;;;7.90;2.53;;;21.10;99.90;;;;;;5014717;28;20792;-75
2023/09/14 11:34:31;;;;;;;8.35;2.28;;;21.10;99.90;;;;;;5030670;28;20976;-74
2023/09/14 11:37:01;;;;;;;7.88;2.50;;;21.20;99.90;;;;;;5025942;28;20431;-75
2023/09/14 11:39:28;;;;;;;6.70;2.55;;;21.60;99.90;;;;;;5037439;28;20428;-74
2023/09/14 11:42:01;;;;;;;7.47;2.53;;;21.60;99.50;;;;;;5056251;28;20426;-74
2023/09/14 11:44:31;;;;;;;8.85;2.40;;;21.10;99.90;;;;;;5035242;28;20567;-74
2023/09/14 11:47:02;;;;;;;6.05;2.33;;;21.00;99.90;;;;;;5048789;28;20440;-74
2023/09/14 11:49:30;;;;;;;6.13;2.17;;;21.50;99.90;;;;;;5065235;28;20492;-74
2023/09/14 11:51:57;;;;;;;8.20;2.30;;;21.20;99.90;;;;;;5062600;28;20429;-74
2023/09/14 11:54:29;;;;;;;6.22;2.20;;;21.60;99.90;;;;;;5043127;28;20419;-74
2023/09/14 11:56:59;;;;;;;6.47;2.47;;;21.80;99.90;;;;;;5051623;28;21081;-75
2023/09/14 11:59:29;;;;;;;8.43;2.42;;;22.10;99.90;;;;;;5054888;28;20492;-74
2023/09/14 12:01:55;;;;;;;6.57;2.05;;;22.40;99.90;;;;;;5015236;28;20818;-75
2023/09/14 12:04:24;;;;;;;6.28;2.38;;;22.30;99.90;;;;;;5041440;28;20510;-75
2023/09/14 12:06:50;;;;;;;9.80;2.67;;;22.40;99.90;;;;;;5054903;28;20411;-74
2023/09/14 12:09:16;;;;;;;6.53;2.13;;;22.50;99.80;;;;;;5032040;28;20768;-74
2023/09/14 12:11:42;;;;;;;7.53;2.85;;;22.60;98.70;;;;;;5035111;28;20429;-74
2023/09/14 12:14:08;;;;;;;8.27;2.40;;;22.80;99.10;;;;;;5029428;28;20425;-74
2023/09/14 12:16:38;;;;;;;5.53;2.30;;;22.70;99.30;;;;;;5073607;28;20431;-74
2023/09/14 12:19:04;;;;;;;8.82;2.70;;;22.90;98.10;;;;;;5031769;28;20432;-74
2023/09/14 12:21:29;;;;;;;7.38;2.53;;;22.80;98.10;;;;;;5033201;28;20460;-75
2023/09/14 12:23:56;;;;;;;7.57;2.60;;;22.60;97.80;;;;;;5035862;28;20479;-77
2023/09/14 12:26:22;;;;;;;6.37;2.27;;;22.80;98.10;;;;;;5076900;28;20492;-75
2023/09/14 12:28:54;;;;;;;6.72;2.47;;;23.00;97.00;;;;;;5032492;28;20428;-75
2023/09/14 12:31:21;;;;;;;7.87;2.47;;;22.70;97.30;;;;;;5034392;28;20433;-75
2023/09/14 12:33:48;;;;;;;9.18;2.40;;;22.50;97.70;;;;;;5019695;28;20442;-74
2023/09/14 12:36:19;;;;;;;5.38;2.15;;;22.30;97.90;;;;;;5063484;28;20433;-75
2023/09/14 12:38:48;;;;;;;8.80;2.50;;;22.30;97.80;;;;;;5030660;28;20496;-75
2023/09/14 12:41:14;;;;;;;7.15;2.50;;;22.80;97.90;;;;;;5045862;28;20514;-75
2023/09/14 12:43:41;;;;;;;6.87;2.60;;;22.80;97.40;;;;;;5040610;28;20418;-75
2023/09/14 12:46:07;;;;;;;8.45;2.90;;;22.30;96.90;;;;;;5033338;28;20948;-76
2023/09/14 12:48:33;;;;;;;7.07;2.25;;;21.20;98.50;;;;;;5076696;28;20443;-75
2023/09/14 12:51:05;;;;;;;5.82;2.40;;;21.80;98.60;;;;;;5053290;28;20925;-75
2023/09/14 12:53:40;;;;;;;6.63;2.47;;;21.30;98.90;;;;;;5016079;28;20429;-75
2023/09/14 12:56:09;;;;;;;6.20;2.43;;;21.60;98.70;;;;;;5030785;28;20480;-76
2023/09/14 12:58:34;;;;;;;6.20;2.55;;;22.00;98.40;;;;;;5047110;28;20417;-76
2023/09/14 13:01:06;;;;;;;5.07;2.40;;;22.40;97.50;;;;;;5047952;28;20762;-76
2023/09/14 13:03:32;;;;;;;6.45;2.72;;;22.50;97.50;;;;;;5021834;28;20429;-76
2023/09/14 13:05:58;;;;;;;6.93;2.67;;;22.30;97.50;;;;;;5022516;28;20983;-76
2023/09/14 13:08:24;;;;;;;5.90;2.63;;;22.20;97.30;;;;;;5028970;28;20429;-76